Latest Coastal Weather Observations for Hopetoun North

IDW60701

Issued at 7:51 pm WST Tuesday 4 August 2015 (issued every 10 minutes, with the page automatically refreshed every 10 minutes)

About coastal observations | Map of coastal stations | Coastal observations for WA | Marine services | Other Formats
Station Details ID: 009961 Name: HOPETOUN NORTH Lat: -33.93 Lon: 120.13 Height: 26.0 m
Data from the previous 72 hours. | See also: Recent months at Hopetoun North
Date/Time
WST
Temp

°C
Wind Pressure Rain
since 9am
mm
Weather Cloud Vis
km
Sea
Height
m
Swell
Dir
 
Speed
knots
Gust
knots
hPa Trend Height
m
Period
s
Dir
04/07:30pm 10.1 SSE 2 3 1032.9 - 0.6 - - - - - - -
04/07:00pm 9.9 SE 5 7 1032.9 - 0.6 - - - - - - -
04/06:30pm 9.6 SE 6 10 1032.9 - 0.6 - - - - - - -
04/06:00pm 9.7 ESE 2 3 1032.8 - 0.4 Recent precip. - - - - - -
04/05:30pm 9.8 ESE 5 8 1032.6 - 0.4 - - - - - - -
04/05:00pm 10.9 SSE 7 11 1032.2 - 0.0 - - - - - - -
04/04:30pm 11.0 S 8 13 1032.0 - 0.0 - - - - - - -
04/04:00pm 11.3 SSE 8 13 1031.9 - 0.0 - - - - - - -
04/03:30pm 11.9 SSE 9 13 1032.0 - 0.0 - - - - - - -
04/03:00pm 12.0 S 11 15 1031.9 - 0.0 - - - - - - -
04/02:30pm 12.2 SSW 11 15 1031.9 - 0.0 - - - - - - -
04/02:00pm 12.1 SSW 11 14 1032.0 - 0.0 - - - - - - -
04/01:30pm 13.1 SSW 10 13 1031.9 - 0.0 - - - - - - -
04/01:00pm 12.7 SSW 9 12 1032.3 - 0.0 - - - - - - -
04/12:30pm 12.8 SW 9 12 1032.7 - 0.0 - - - - - - -
04/12:00pm 13.1 SW 8 13 1033.1 - 0.0 - - - - - - -
04/11:30am 12.7 WSW 6 8 1033.7 - 0.0 - - - - - - -
04/11:00am 12.1 WSW 7 9 1034.1 - 0.0 - - - - - - -
04/10:30am 12.6 W 8 11 1034.4 - 0.0 - - - - - - -
04/10:00am 12.3 WNW 3 5 1034.5 - 0.0 - - - - - - -
04/09:30am 10.5 NW 3 4 1034.5 - 0.0 - - - - - - -
04/09:00am 9.3 N 3 4 1034.5 - 0.2 - - - - - - -
04/08:30am 8.4 N 5 6 1034.3 - 0.2 - - - - - - -
04/08:00am 7.6 NNW 5 6 1034.2 - 0.2 - - - - - - -
04/07:30am 7.6 NNW 5 7 1033.9 - 0.2 - - - - - - -
04/07:00am 7.3 NNW 3 5 1033.6 - 0.2 - - - - - - -
04/06:30am 7.2 NNW 3 5 1033.4 - 0.2 - - - - - - -
04/06:00am 7.2 N 4 5 1033.3 - 0.2 - - - - - - -
04/05:30am 7.1 NNW 4 6 1033.2 - 0.2 - - - - - - -
04/05:00am 6.9 N 4 6 1032.9 - 0.2 - - - - - - -
04/04:30am 7.4 N 4 6 1033.0 - 0.2 - - - - - - -
04/04:00am 7.2 N 3 5 1033.0 - 0.2 - - - - - - -
04/03:30am 6.8 N 3 6 1033.0 - 0.2 - - - - - - -
04/03:00am 6.2 N 3 4 1033.0 - 0.2 - - - - - - -
04/02:30am 6.3 N 3 4 1033.0 - 0.2 - - - - - - -
04/02:00am 6.0 NNE 3 4 1033.2 - 0.2 - - - - - - -
04/01:30am 6.1 N 4 5 1033.3 - 0.2 - - - - - - -
04/01:00am 6.3 NNW 4 6 1033.4 - 0.2 - - - - - - -
04/12:30am 6.6 N 4 5 1033.3 - 0.2 - - - - - - -
04/12:00am 6.1 N 3 4 1033.5 - 0.2 - - - - - - -
 
Date/Time
WST
Temp

°C
Wind Pressure Rain
since 9am
mm
Weather Cloud Vis
km
Sea
Height
m
Swell
Dir
 
Speed
knots
Gust
knots
hPa Trend Height
m
Period
s
Dir
03/11:30pm 6.5 NNE 2 3 1033.6 - 0.2 - - - - - - -
03/11:00pm 6.6 N 3 3 1033.7 - 0.2 - - - - - - -
03/10:30pm 7.0 NNW 4 4 1034.0 - 0.2 - - - - - - -
03/10:00pm 6.3 N 3 3 1034.1 - 0.2 - - - - - - -
03/09:30pm 6.8 N 2 3 1034.4 - 0.2 - - - - - - -
03/09:00pm 6.4 NNE 2 4 1034.5 - 0.2 - - - - - - -
03/08:30pm 7.3 NNE 3 3 1034.3 - 0.2 - - - - - - -
03/08:00pm 8.6 SE 2 3 1034.2 - 0.2 - - - - - - -
03/07:30pm 9.4 SSE 3 3 1034.1 - 0.2 - - - - - - -
03/07:00pm 9.3 SSE 4 5 1034.0 - 0.2 - - - - - - -
03/06:30pm 9.2 S 3 3 1033.9 - 0.2 - - - - - - -
03/06:00pm 9.4 SSE 3 3 1033.8 - 0.2 - - - - - - -
03/05:30pm 10.0 S 4 4 1033.5 - 0.2 - - - - - - -
03/05:00pm 11.0 SSE 5 7 1033.3 - 0.2 - - - - - - -
03/04:30pm 11.8 SSE 5 7 1033.2 - 0.2 - - - - - - -
03/04:00pm 12.2 SSE 6 8 1033.2 - 0.2 - - - - - - -
03/03:30pm 12.6 SSE 6 9 1033.2 - 0.2 - - - - - - -
03/03:00pm 12.9 SSE 6 8 1033.3 - 0.2 - - - - - - -
03/02:30pm 12.5 SE 5 8 1033.3 - 0.2 - - - - - - -
03/02:00pm 12.5 S 6 8 1033.3 - 0.2 - - - - - - -
03/01:30pm 12.7 S 7 9 1033.5 - 0.2 - - - - - - -
03/01:00pm 12.6 S 6 8 1033.8 - 0.2 - - - - - - -
03/12:30pm 12.2 SSW 5 7 1034.1 - 0.0 - - - - - - -
03/12:00pm 11.3 SW 5 6 1034.6 - 0.0 - - - - - - -
03/11:30am 11.7 SSW 4 6 1035.2 - 0.0 - - - - - - -
03/11:00am 11.6 SSW 4 5 1035.5 - 0.0 - - - - - - -
03/10:30am 12.7 W 3 6 1035.6 - 0.0 - - - - - - -
03/10:00am 12.3 WNW 4 6 1035.7 - 0.0 - - - - - - -
03/09:30am 10.9 WNW 2 4 1035.8 - 0.0 - - - - - - -
03/09:00am 9.0 NNW 3 5 1035.8 - 1.4 - - - - - - -
03/08:30am 8.1 NW 3 5 1035.6 - 1.4 - - - - - - -
03/08:00am 6.8 NNE 3 4 1035.2 - 1.4 - - - - - - -
03/07:30am 6.3 NNE 4 5 1034.9 - 1.4 - - - - - - -
03/07:00am 6.3 NW 4 6 1034.8 - 1.4 - - - - - - -
03/06:30am 6.0 NNW 4 5 1034.6 - 1.4 - - - - - - -
03/06:00am 6.3 NNW 4 5 1034.5 - 1.4 - - - - - - -
03/05:30am 6.6 N 4 4 1034.4 - 1.4 - - - - - - -
03/05:00am 6.9 NNW 3 4 1034.1 - 1.4 - - - - - - -
03/04:30am 6.8 NNW 4 4 1034.0 - 1.4 - - - - - - -
03/04:00am 6.1 N 3 4 1033.7 - 1.4 - - - - - - -
03/03:30am 6.7 N 3 4 1033.6 - 1.4 - - - - - - -
03/03:00am 7.1 NW 4 4 1033.7 - 1.4 Recent precip. - - - - - -
03/02:30am 7.6 NW 5 5 1033.7 - 1.4 - - - - - - -
03/02:00am 7.6 NW 2 3 1033.8 - 1.2 - - - - - - -
03/01:30am 7.3 NW 4 5 1034.0 - 0.8 - - - - - - -
03/01:00am 7.6 NW 4 5 1034.2 - 0.6 - - - - - - -
03/12:30am 7.8 NW 6 7 1034.4 - 0.6 - - - - - - -
03/12:00am 7.8 N 3 4 1034.5 - 0.4 - - - - - - -
 
Date/Time
WST
Temp

°C
Wind Pressure Rain
since 9am
mm
Weather Cloud Vis
km
Sea
Height
m
Swell
Dir
 
Speed
knots
Gust
knots
hPa Trend Height
m
Period
s
Dir
02/11:30pm 7.9 NW 6 7 1034.4 - 0.4 - - - - - - -
02/11:00pm 7.9 NW 5 6 1034.4 - 0.4 - - - - - - -
02/10:30pm 7.5 NW 4 5 1034.5 - 0.4 - - - - - - -
02/10:00pm 7.7 W 3 4 1034.6 - 0.4 - - - - - - -
02/09:30pm 8.4 NW 3 3 1034.5 - 0.4 - - - - - - -
02/09:00pm 9.1 WNW 3 3 1034.5 - 0.4 Recent precip. - - - - - -
02/08:30pm 9.6 W 3 5 1034.3 - 0.4 - - - - - - -
02/08:00pm 9.7 SW 2 3 1034.1 - 0.0 - - - - - - -
02/07:30pm 9.6 CALM 0 1 1034.0 - 0.0 - - - - - - -
02/07:00pm 9.9 SE 3 4 1033.6 - 0.0 - - - - - - -
02/06:30pm 10.0 S 4 6 1033.3 - 0.0 - - - - - - -
02/06:00pm 10.0 SSW 5 7 1032.9 - 0.0 - - - - - - -
02/05:30pm 10.7 S 7 10 1032.6 - 0.0 - - - - - - -
02/05:00pm 11.1 WSW 4 6 1032.4 - 0.0 - - - - - - -
02/04:30pm 11.1 SW 7 9 1032.1 - 0.0 - - - - - - -
02/04:00pm 11.7 SW 8 10 1032.3 - 0.0 - - - - - - -
02/03:30pm 11.9 SW 8 11 1032.3 - 0.0 - - - - - - -
02/03:00pm 12.4 SW 8 11 1032.2 - 0.0 - - - - - - -
02/02:30pm 12.3 SW 8 11 1031.9 - 0.0 - - - - - - -
02/02:00pm 12.5 WSW 9 12 1031.8 - 0.0 - - - - - - -
02/01:30pm 12.7 SW 10 15 1032.1 - 0.0 - - - - - - -
02/01:00pm 12.4 WSW 10 15 1032.1 - 0.0 - - - - - - -
02/12:30pm 12.3 WSW 12 16 1032.4 - 0.0 - - - - - - -
02/12:00pm 11.7 WSW 10 14 1032.5 - 0.0 - - - - - - -
02/11:30am 11.4 WSW 12 16 1032.7 - 0.0 - - - - - - -
02/11:00am 11.1 WSW 11 17 1032.8 - 0.0 - - - - - - -
02/10:30am 11.0 WSW 11 14 1032.8 - 0.0 - - - - - - -
02/10:00am 10.9 WSW 10 15 1032.8 - 0.0 - - - - - - -
02/09:30am 10.9 W 7 10 1032.6 - 0.0 - - - - - - -
02/09:00am 10.2 W 6 10 1032.5 - 0.2 - - - - - - -
02/08:30am 8.5 W 5 9 1032.4 - 0.2 - - - - - - -
02/08:00am 8.0 WNW 4 7 1032.1 - 0.2 - - - - - - -
02/07:30am 8.0 NW 3 5 1031.5 - 0.0 - - - - - - -
02/07:00am 7.9 NW 4 6 1031.1 - 0.0 - - - - - - -
02/06:30am 7.8 W 4 7 1030.7 - 0.0 - - - - - - -
02/06:00am 7.9 WNW 5 7 1030.5 - 0.0 - - - - - - -
02/05:30am 7.7 WNW 4 5 1030.4 - 0.0 - - - - - - -
02/05:00am 7.8 NW 4 6 1030.3 - 0.0 - - - - - - -
02/04:30am 8.3 W 6 9 1030.2 - 0.0 - - - - - - -
02/04:00am 8.7 WSW 11 16 1030.0 - 0.0 - - - - - - -
02/03:30am 8.2 WNW 5 7 1029.9 - 0.0 - - - - - - -
02/03:00am 8.4 NW 4 7 1030.0 - 0.0 - - - - - - -
02/02:30am 8.1 NNW 3 4 1030.0 - 0.0 - - - - - - -
02/02:00am 7.9 NNE 2 4 1029.9 - 0.0 - - - - - - -
02/01:30am 7.7 N 3 4 1029.9 - 0.0 - - - - - - -
02/01:00am 7.7 N 4 6 1029.8 - 0.0 - - - - - - -
02/12:30am 7.6 NNW 4 5 1029.8 - 0.0 - - - - - - -
02/12:00am 7.4 N 3 5 1029.7 - 0.0 - - - - - - -
 
Date/Time
WST
Temp

°C
Wind Pressure Rain
since 9am
mm
Weather Cloud Vis
km
Sea
Height
m
Swell
Dir
 
Speed
knots
Gust
knots
hPa Trend Height
m
Period
s
Dir
01/11:30pm 7.1 NNW 3 5 1029.6 - 0.0 - - - - - - -
01/11:00pm 7.3 NNW 3 5 1029.7 - 0.0 - - - - - - -
01/10:30pm 7.4 NNW 4 6 1029.6 - 0.0 - - - - - - -
01/10:00pm 7.4 NNW 6 10 1029.5 - 0.0 - - - - - - -
01/09:30pm 8.4 SSE 3 5 1029.5 - 0.0 - - - - - - -
01/09:00pm 8.3 S 3 7 1029.4 - 0.0 - - - - - - -
01/08:30pm 8.8 SW 3 4 1029.2 - 0.0 - - - - - - -
01/08:00pm 9.1 SE 7 10 1029.1 - 0.0 - - - - - - -

Other Formats:

Comma delimited format used in spreadsheet applications
http://www.bom.gov.au/fwo/IDW60701/IDW60701.95635.axf

JavaScript Object Notation format (JSON) in row-major order
http://www.bom.gov.au/fwo/IDW60701/IDW60701.95635.json